createdAt,value
2022-08-26T00:03:39.408Z,100427.98
2022-08-26T00:08:43.811Z,100426.85
2022-08-26T00:13:49.651Z,100422.26
2022-08-26T00:18:53.225Z,100416.27
2022-08-26T00:23:56.279Z,100422.76
2022-08-26T00:28:58.996Z,100411.11
2022-08-26T00:34:03.179Z,100400.91
2022-08-26T00:39:07.588Z,100396.04
2022-08-26T00:44:14.053Z,100399.77
2022-08-26T00:49:33.868Z,100398.76
2022-08-26T00:54:42.376Z,100395.24
2022-08-26T00:59:51.439Z,100402.16
2022-08-26T01:04:59.109Z,100406.92
2022-08-26T01:10:07.995Z,100407.98
2022-08-26T01:15:16.342Z,100405.59
2022-08-26T01:20:28.342Z,100403.91
2022-08-26T01:25:33.578Z,100406.02
2022-08-26T01:30:39.508Z,100402.59
2022-08-26T01:35:43.390Z,100409.30
2022-08-26T01:40:47.225Z,100406.41
2022-08-26T01:45:51.583Z,100402.14
2022-08-26T01:50:55.885Z,100408.73
2022-08-26T01:56:01.330Z,100410.60
2022-08-26T02:01:06.410Z,100406.66
2022-08-26T02:06:10.371Z,100400.23
2022-08-26T02:11:13.685Z,100404.58
2022-08-26T02:16:19.477Z,100405.46
2022-08-26T02:21:25.073Z,100400.13
2022-08-26T02:26:27.887Z,100402.44
2022-08-26T02:31:30.587Z,100397.13
2022-08-26T02:36:33.446Z,100396.67
2022-08-26T02:41:44.073Z,100397.42
2022-08-26T02:46:48.364Z,100396.02
2022-08-26T02:51:52.696Z,100396.69
2022-08-26T02:56:56.367Z,100389.80
2022-08-26T03:02:00.492Z,100386.35
2022-08-26T03:07:04.254Z,100378.78
2022-08-26T03:12:08.045Z,100380.83
2022-08-26T03:17:10.901Z,100373.11
2022-08-26T03:22:14.533Z,100369.58
2022-08-26T03:27:17.828Z,100368.44
2022-08-26T03:32:20.805Z,100357.48
2022-08-26T03:37:23.588Z,100358.72
2022-08-26T03:42:26.472Z,100358.58
2022-08-26T03:47:29.266Z,100361.04
2022-08-26T03:52:32.077Z,100367.88
2022-08-26T03:57:34.806Z,100375.45
2022-08-26T04:02:38.156Z,100376.09
2022-08-26T04:07:42.982Z,100366.93
2022-08-26T04:12:46.361Z,100370.16
2022-08-26T04:17:49.299Z,100377.40
2022-08-26T04:22:52.645Z,100391.39
2022-08-26T04:27:55.635Z,100393.89
2022-08-26T04:32:58.709Z,100396.14
2022-08-26T04:38:03.368Z,100396.28
2022-08-26T04:43:08.987Z,100384.02
2022-08-26T04:48:12.333Z,100388.35
2022-08-26T04:53:20.533Z,100391.97
2022-08-26T04:58:25.228Z,100400.41
2022-08-26T05:03:30.534Z,100398.98
2022-08-26T05:08:34.182Z,100407.00
2022-08-26T05:13:39.223Z,100406.83
2022-08-26T05:18:43.704Z,100406.20
2022-08-26T05:23:50.553Z,100408.77
2022-08-26T05:28:54.735Z,100417.73
2022-08-26T05:33:59.236Z,100426.55
2022-08-26T05:39:07.935Z,100431.06
2022-08-26T05:44:20.246Z,100438.80
2022-08-26T05:49:26.418Z,100441.57
2022-08-26T05:54:29.544Z,100453.81
2022-08-26T05:59:32.500Z,100458.60
2022-08-26T06:04:35.559Z,100464.33
2022-08-26T06:09:39.907Z,100462.09
2022-08-26T06:14:42.878Z,100463.08
2022-08-26T06:19:45.717Z,100463.80
2022-08-26T06:25:07.442Z,100464.23
2022-08-26T06:30:13.204Z,100464.96
2022-08-26T06:35:16.404Z,100470.90
2022-08-26T06:40:21.030Z,100478.53
2022-08-26T06:45:24.230Z,100481.90
2022-08-26T06:50:27.109Z,100484.65
2022-08-26T06:55:30.477Z,100488.23
2022-08-26T07:00:33.901Z,100483.45
2022-08-26T07:05:37.116Z,100482.35
2022-08-26T07:10:39.891Z,100486.49
2022-08-26T07:15:42.800Z,100485.94
2022-08-26T07:20:45.830Z,100486.58
2022-08-26T07:25:48.553Z,100486.95
2022-08-26T07:30:52.072Z,100485.86
2022-08-26T07:35:56.247Z,100484.55
2022-08-26T07:40:59.523Z,100482.00
2022-08-26T07:46:04.291Z,100486.46
2022-08-26T07:51:07.627Z,100486.70
2022-08-26T07:56:11.626Z,100485.90
2022-08-26T08:01:14.894Z,100487.50
2022-08-26T08:06:21.358Z,100487.71
2022-08-26T08:11:27.297Z,100493.34
2022-08-26T08:16:32.224Z,100485.42
2022-08-26T08:21:36.178Z,100484.42
2022-08-26T08:26:39.479Z,100476.20
2022-08-26T08:31:58.353Z,100470.33
2022-08-26T08:37:07.344Z,100460.45
2022-08-26T08:42:36.774Z,100459.78
2022-08-26T08:47:50.522Z,100460.45
2022-08-26T08:53:15.283Z,100455.45
2022-08-26T08:58:22.079Z,100454.57
2022-08-26T09:03:40.376Z,100453.64
2022-08-26T09:08:47.030Z,100450.25
2022-08-26T09:13:55.347Z,100455.48
2022-08-26T09:19:11.472Z,100451.90
2022-08-26T09:24:14.268Z,100448.75
2022-08-26T09:29:26.849Z,100448.16
2022-08-26T09:34:29.667Z,100442.77
2022-08-26T09:39:37.523Z,100438.60
2022-08-26T09:45:03.919Z,100433.73
2022-08-26T09:50:30.160Z,100426.20
2022-08-26T09:55:33.095Z,100424.52
2022-08-26T10:00:39.369Z,100426.59
2022-08-26T10:06:00.207Z,100421.35
2022-08-26T10:11:11.247Z,100422.48
2022-08-26T10:16:14.585Z,100424.63
2022-08-26T10:21:37.729Z,100419.43
2022-08-26T10:26:54.441Z,100420.02
2022-08-26T10:32:03.404Z,100418.50
2022-08-26T10:37:15.636Z,100414.08
2022-08-26T10:42:37.606Z,100411.39
2022-08-26T10:47:48.697Z,100412.54
2022-08-26T10:53:06.374Z,100409.69
2022-08-26T10:58:30.201Z,100401.79
2022-08-26T11:04:14.269Z,100403.07
2022-08-26T11:09:45.948Z,100398.20
2022-08-26T11:14:58.667Z,100388.39
2022-08-26T11:20:08.933Z,100382.06
2022-08-26T11:25:18.450Z,100376.53
2022-08-26T11:30:21.543Z,100372.79
2022-08-26T11:35:26.902Z,100366.60
2022-08-26T11:40:35.410Z,100364.69
2022-08-26T11:45:42.204Z,100360.56
2022-08-26T11:50:55.394Z,100358.23
2022-08-26T11:56:00.568Z,100350.87
2022-08-26T12:01:09.928Z,100341.68
2022-08-26T12:06:23.019Z,100342.31
2022-08-26T12:11:27.285Z,100338.07
2022-08-26T12:16:36.048Z,100329.95
2022-08-26T12:21:38.826Z,100323.30
2022-08-26T12:26:42.119Z,100317.13
2022-08-26T12:31:44.959Z,100312.22
2022-08-26T12:36:56.839Z,100309.34
2022-08-26T12:42:04.501Z,100296.55
2022-08-26T12:47:42.150Z,100298.52
2022-08-26T12:52:52.393Z,100288.44
2022-08-26T12:58:13.528Z,100289.02
2022-08-26T13:03:34.557Z,100284.13
2022-08-26T13:08:41.344Z,100272.39
2022-08-26T13:13:45.832Z,100265.71
2022-08-26T13:18:57.722Z,100255.98
2022-08-26T13:24:16.848Z,100259.02
2022-08-26T13:29:20.142Z,100253.89
2022-08-26T13:34:24.234Z,100257.23
2022-08-26T13:39:27.340Z,100251.17
2022-08-26T13:44:30.295Z,100244.84
2022-08-26T13:49:33.364Z,100239.54
2022-08-26T13:54:36.411Z,100230.95
2022-08-26T13:59:39.266Z,100225.69
2022-08-26T14:04:43.600Z,100227.45
2022-08-26T14:09:46.709Z,100216.06
2022-08-26T14:14:49.617Z,100214.89
2022-08-26T14:19:53.814Z,100202.71
2022-08-26T14:24:56.960Z,100196.86
2022-08-26T14:30:00.269Z,100192.00
2022-08-26T14:35:03.325Z,100191.48
2022-08-26T14:40:07.212Z,100183.55
2022-08-26T14:45:15.998Z,100182.02
2022-08-26T14:50:24.862Z,100175.55
2022-08-26T14:55:28.203Z,100170.83
2022-08-26T15:00:31.512Z,100168.45
2022-08-26T15:05:34.646Z,100167.39
2022-08-26T15:10:38.191Z,100163.73
2022-08-26T15:15:41.083Z,100163.48
2022-08-26T15:20:44.654Z,100165.25
2022-08-26T15:25:48.321Z,100156.55
2022-08-26T15:30:51.338Z,100154.46
2022-08-26T15:35:55.981Z,100150.30
2022-08-26T15:41:02.955Z,100151.48
2022-08-26T15:46:11.726Z,100142.54
2022-08-26T15:51:22.657Z,100139.04
2022-08-26T15:56:32.661Z,100136.58
2022-08-26T16:01:37.325Z,100133.33
2022-08-26T16:06:42.563Z,100131.74
2022-08-26T16:11:45.431Z,100130.77
2022-08-26T16:16:49.232Z,100127.34
2022-08-26T16:21:52.128Z,100119.73
2022-08-26T16:26:54.986Z,100118.09
2022-08-26T16:31:57.850Z,100111.68
2022-08-26T16:37:00.757Z,100112.08
2022-08-26T16:42:03.741Z,100107.34
2022-08-26T16:47:06.916Z,100101.16
2022-08-26T16:52:11.338Z,100100.66
2022-08-26T16:57:16.908Z,100102.65
2022-08-26T17:02:20.246Z,100104.31
2022-08-26T17:07:23.635Z,100107.88
2022-08-26T17:12:26.847Z,100107.20
2022-08-26T17:17:29.708Z,100108.88
2022-08-26T17:22:34.679Z,100111.66
2022-08-26T17:27:37.812Z,100106.09
2022-08-26T17:32:42.402Z,100106.95
2022-08-26T17:37:45.275Z,100115.20
2022-08-26T17:42:48.831Z,100120.35
2022-08-26T17:47:53.707Z,100124.94
2022-08-26T17:52:56.496Z,100131.46
2022-08-26T17:57:59.486Z,100133.69
2022-08-26T18:03:02.777Z,100137.23
2022-08-26T18:08:06.421Z,100142.02
2022-08-26T18:13:09.690Z,100146.09
2022-08-26T18:18:16.079Z,100152.18
2022-08-26T18:23:18.978Z,100153.73
2022-08-26T18:28:21.815Z,100158.77
2022-08-26T18:33:24.629Z,100158.97
2022-08-26T18:38:28.463Z,100163.23
2022-08-26T18:43:31.292Z,100173.84
2022-08-26T18:48:36.765Z,100173.25
2022-08-26T18:53:39.530Z,100182.23
2022-08-26T18:58:42.249Z,100189.21
2022-08-26T19:03:46.282Z,100190.50
2022-08-26T19:08:50.175Z,100194.51
2022-08-26T19:13:55.297Z,100192.04
2022-08-26T19:18:58.942Z,100191.53
2022-08-26T19:24:04.177Z,100190.80
2022-08-26T19:29:07.136Z,100201.23
2022-08-26T19:34:10.585Z,100202.43
2022-08-26T19:39:13.460Z,100202.23
2022-08-26T19:44:37.781Z,100200.75
2022-08-26T19:49:40.578Z,100205.91
2022-08-26T19:54:44.550Z,100210.25
2022-08-26T19:59:47.517Z,100212.70
2022-08-26T20:04:50.282Z,100221.20
2022-08-26T20:09:53.116Z,100224.03
2022-08-26T20:14:55.951Z,100220.12
2022-08-26T20:20:28.454Z,100220.23
2022-08-26T20:25:36.344Z,100216.61
2022-08-26T20:30:40.170Z,100219.27
2022-08-26T20:35:43.075Z,100225.27
2022-08-26T20:40:46.287Z,100228.52
2022-08-26T20:45:50.257Z,100222.05
2022-08-26T20:50:57.533Z,100220.83
2022-08-26T20:56:02.875Z,100220.05
2022-08-26T21:01:08.271Z,100216.38
2022-08-26T21:06:11.558Z,100217.14
2022-08-26T21:11:15.176Z,100213.03
2022-08-26T21:16:19.713Z,100210.42
2022-08-26T21:21:25.025Z,100201.73
2022-08-26T21:26:28.398Z,100200.07
2022-08-26T21:31:32.375Z,100195.16
2022-08-26T21:36:35.455Z,100195.70
2022-08-26T21:41:39.217Z,100197.96
2022-08-26T21:46:43.796Z,100198.94
2022-08-26T21:51:48.487Z,100206.55
2022-08-26T21:56:51.446Z,100202.05
2022-08-26T22:01:54.718Z,100201.20
2022-08-26T22:06:59.199Z,100198.05
2022-08-26T22:12:02.204Z,100195.73
2022-08-26T22:17:05.545Z,100198.43
2022-08-26T22:22:08.584Z,100200.05
2022-08-26T22:27:12.174Z,100202.84
2022-08-26T22:32:15.241Z,100200.61
2022-08-26T22:37:18.162Z,100203.54
2022-08-26T22:42:21.007Z,100205.76
2022-08-26T22:47:24.273Z,100199.98
2022-08-26T22:52:27.491Z,100201.45
2022-08-26T22:57:30.494Z,100200.90
2022-08-26T23:02:33.340Z,100198.49
2022-08-26T23:07:36.598Z,100190.34
2022-08-26T23:12:39.513Z,100184.88
2022-08-26T23:17:42.617Z,100179.76
2022-08-26T23:22:45.544Z,100179.11
2022-08-26T23:27:48.851Z,100178.83
2022-08-26T23:32:52.155Z,100175.77
2022-08-26T23:37:55.072Z,100170.22
2022-08-26T23:43:05.738Z,100164.45
2022-08-26T23:48:08.917Z,100165.93
2022-08-26T23:53:19.489Z,100160.16
2022-08-26T23:58:22.946Z,100155.92
